createdAt,value
2018-05-23T00:08:11.786Z,21.9
2018-05-23T00:25:00.894Z,21.9
2018-05-23T00:41:50.122Z,21.9
2018-05-23T00:58:39.345Z,22.2
2018-05-23T01:15:28.690Z,21.9
2018-05-23T01:32:17.758Z,21.6
2018-05-23T01:49:06.370Z,21.6
2018-05-23T02:05:55.069Z,21.6
2018-05-23T02:22:43.996Z,21.9
2018-05-23T02:39:33.127Z,21.9
2018-05-23T02:56:22.092Z,21.9
2018-05-23T03:13:11.198Z,21.9
2018-05-23T03:30:00.379Z,21.9
2018-05-23T03:46:49.409Z,21.6
2018-05-23T04:03:38.441Z,21.9
2018-05-23T04:20:27.400Z,21.9
2018-05-23T04:37:16.574Z,22.2
2018-05-23T04:54:05.805Z,22.2
2018-05-23T05:10:55.074Z,22.2
2018-05-23T05:27:44.477Z,22.2
2018-05-23T05:44:33.880Z,22.2
2018-05-23T06:01:23.237Z,22.2
2018-05-23T06:18:13.174Z,22.6
2018-05-23T06:35:03.155Z,22.6
2018-05-23T06:51:53.253Z,22.6
2018-05-23T07:08:43.509Z,22.9
2018-05-23T07:25:33.459Z,22.9
2018-05-23T07:42:23.733Z,22.9
2018-05-23T07:59:14.208Z,23.2
2018-05-23T08:16:05.031Z,23.5
2018-05-23T08:32:55.703Z,23.5
2018-05-23T08:49:46.608Z,23.5
2018-05-23T09:06:37.528Z,23.5
2018-05-23T09:23:34.723Z,23.8
2018-05-23T09:40:19.735Z,23.8
2018-05-23T09:57:12.019Z,24.2
2018-05-23T10:14:02.790Z,24.2
2018-05-23T10:30:55.655Z,24.2
2018-05-23T10:47:46.304Z,24.2
2018-05-23T11:04:38.131Z,24.2
2018-05-23T11:21:29.870Z,24.2
2018-05-23T11:38:21.633Z,24.2
2018-05-23T11:55:13.448Z,24.2
2018-05-23T12:12:05.462Z,24.2
2018-05-23T12:28:57.051Z,24.2
2018-05-23T12:45:48.852Z,24.2
2018-05-23T13:02:40.602Z,24.2
2018-05-23T13:19:32.404Z,24.2
2018-05-23T13:36:24.437Z,24.5
2018-05-23T13:53:16.420Z,24.5
2018-05-23T14:10:08.572Z,24.5
2018-05-23T14:27:00.759Z,24.5
2018-05-23T14:43:53.074Z,24.8
2018-05-23T15:00:46.441Z,24.8
2018-05-23T15:17:38.175Z,24.8
2018-05-23T15:34:30.391Z,24.8
2018-05-23T15:51:22.796Z,24.8
2018-05-23T16:08:15.403Z,24.8
2018-05-23T16:25:07.839Z,24.8
2018-05-23T16:42:00.388Z,24.8
2018-05-23T16:57:12.192Z,24.8
2018-05-23T17:09:00.339Z,24.8
2018-05-23T17:25:52.806Z,24.5
2018-05-23T17:42:45.112Z,24.5
2018-05-23T17:59:37.475Z,24.5
2018-05-23T18:16:29.492Z,24.2
2018-05-23T18:33:21.556Z,24.2
2018-05-23T18:50:13.850Z,24.2
2018-05-23T19:07:05.750Z,24.2
2018-05-23T19:23:57.702Z,23.8
2018-05-23T19:40:49.741Z,24.2
2018-05-23T19:57:41.803Z,23.8
2018-05-23T20:14:33.793Z,23.8
2018-05-23T20:31:25.863Z,23.8
2018-05-23T20:48:17.873Z,23.8
2018-05-23T21:05:09.887Z,23.8
2018-05-23T21:22:01.533Z,23.5
2018-05-23T21:38:52.501Z,23.5
2018-05-23T21:55:43.235Z,23.5
2018-05-23T22:12:34.279Z,23.5
2018-05-23T22:29:24.948Z,23.5
2018-05-23T22:46:15.774Z,23.2
2018-05-23T23:03:06.064Z,23.2
2018-05-23T23:19:56.642Z,23.2
2018-05-23T23:36:46.921Z,23.2
2018-05-23T23:53:38.170Z,23.2
